Latitude: N 50° 09' 49" Longitude: W 05° 11' 53" Elevation: 168m ASL

There are 11 visitors online

Adverts
Latest METAR Data

Below are the latest METARs ("Meteorological Services to Airmen Reports"), for RNAS Culdrose and Newquay Airport.

EGDR - RNAS Culdrose
Distance from station: SW 6mi, 9km
Updated: Fri, 21-Sep-2018 6:50pm BST
Mostly Cloudy
Mostly Cloudy
 Wind from W
Wind: W 14 mph , 22 km/h
Temperature: 57°F , 14°C
Dew Point: 46°F , 8°C
Humidity: 67%
Barometer: 30.09 inHg , 1019 hPa
Clouds: Mostly Cloudy
Visibility: 6 miles , 10 km
Cloud details: Few Clouds 3200 ft
Mostly Cloudy 15000 ft
2018/09/21 17:50 EGDR 211750Z AUTO 28012KT 9999 // FEW032/// BKN150/// 14/08 Q1019
EGHQ - Newquay Airport
Distance from station: NE 21mi, 34km
Updated: Fri, 21-Sep-2018 6:50pm BST
Partly Cloudy
Partly Cloudy
 Wind from W
Wind: W 15 mph , 24 km/h
Temperature: 55°F , 13°C
Dew Point: 46°F , 8°C
Humidity: 72%
Barometer: 30.06 inHg , 1018 hPa
Clouds: Partly Cloudy
Visibility: 6 miles , 10 km
Cloud details: Partly Cloudy 2600 ft
2018/09/21 17:50 EGHQ 211750Z 28013KT 9999 SCT026 13/08 Q1018
 
EGTE - Exeter Airport
Distance from station: ENE 88mi, 141km
Updated: Fri, 21-Sep-2018 6:50pm BST
Few Clouds
Few Clouds
 Wind from W
Wind: W 14 mph , 22 km/h
Temperature: 57°F , 14°C
Dew Point: 46°F , 8°C
Humidity: 67%
Barometer: 30.03 inHg , 1017 hPa
Clouds: Few Clouds
Visibility: 6 miles , 10 km
Cloud details: Few Clouds 3500 ft
2018/09/21 17:50 EGTE 211750Z 28012KT 240V300 9999 FEW035 14/08 Q1017
EGHE - St Marys, IOS
Distance from station: W 51mi, 82km
Updated: Fri, 21-Sep-2018 5:50pm BST
NOT Current
Partly Cloudy
Partly Cloudy
 Wind from W
Wind: W 17 mph , 28 km/h
Temperature: 57°F , 14°C
Dew Point: 46°F , 8°C
Humidity: 67%
Barometer: 30.09 inHg , 1019 hPa
Clouds: Partly Cloudy
Visibility: 6 miles , 10 km
Cloud details: Partly Cloudy 3000 ft
2018/09/21 16:50 EGHE 211650Z 28015KT 9999 SCT030 14/08 Q1019

Metar display script from Saratoga-Weather.org

UK - WEATHER STATION TOPSITES - UK World Weather Websites

This is a private weather station, never base important decisions or events on data from this weather station. Although every effort has been made to make the data as accurate as possible it does not meet MetOffice standards. It is proved as a guide of local weather conditions. We accept no liability for any loss which may arise from use of the data.

Copyright © Carnkie Weather 2009 - 2018.